sensor_id;sensor_type;location;lat;lon;timestamp;P1;durP1;ratioP1;P2;durP2;ratioP2
45392;SDS011;31129;44.810;10.334;2024-01-07T00:01:57;23.23;;;15.20;;
45392;SDS011;31129;44.810;10.334;2024-01-07T00:04:23;22.23;;;15.80;;
45392;SDS011;31129;44.810;10.334;2024-01-07T00:06:48;21.23;;;14.77;;
45392;SDS011;31129;44.810;10.334;2024-01-07T00:09:15;26.83;;;16.33;;
45392;SDS011;31129;44.810;10.334;2024-01-07T00:11:41;22.60;;;15.50;;
45392;SDS011;31129;44.810;10.334;2024-01-07T00:14:06;22.45;;;16.30;;
45392;SDS011;31129;44.810;10.334;2024-01-07T00:16:32;22.75;;;16.10;;
45392;SDS011;31129;44.810;10.334;2024-01-07T00:18:57;24.50;;;15.98;;
45392;SDS011;31129;44.810;10.334;2024-01-07T00:21:32;22.00;;;15.45;;
45392;SDS011;31129;44.810;10.334;2024-01-07T00:23:58;22.08;;;15.50;;
45392;SDS011;31129;44.810;10.334;2024-01-07T00:26:23;22.13;;;15.60;;
45392;SDS011;31129;44.810;10.334;2024-01-07T00:28:48;23.98;;;16.30;;
45392;SDS011;31129;44.810;10.334;2024-01-07T00:31:14;20.27;;;14.82;;
45392;SDS011;31129;44.810;10.334;2024-01-07T00:33:40;20.08;;;14.95;;
45392;SDS011;31129;44.810;10.334;2024-01-07T00:36:05;21.67;;;15.70;;
45392;SDS011;31129;44.810;10.334;2024-01-07T00:38:31;20.27;;;14.20;;
45392;SDS011;31129;44.810;10.334;2024-01-07T00:40:56;18.90;;;13.20;;
45392;SDS011;31129;44.810;10.334;2024-01-07T00:43:22;21.08;;;14.45;;
45392;SDS011;31129;44.810;10.334;2024-01-07T00:45:47;17.88;;;13.10;;
45392;SDS011;31129;44.810;10.334;2024-01-07T00:48:13;18.60;;;13.13;;
45392;SDS011;31129;44.810;10.334;2024-01-07T00:50:40;17.90;;;13.35;;
45392;SDS011;31129;44.810;10.334;2024-01-07T00:53:05;18.35;;;13.43;;
45392;SDS011;31129;44.810;10.334;2024-01-07T00:55:31;17.85;;;13.48;;
45392;SDS011;31129;44.810;10.334;2024-01-07T00:57:56;16.27;;;11.75;;
45392;SDS011;31129;44.810;10.334;2024-01-07T01:00:22;18.05;;;13.05;;
45392;SDS011;31129;44.810;10.334;2024-01-07T01:02:47;16.63;;;12.10;;
45392;SDS011;31129;44.810;10.334;2024-01-07T01:05:13;16.63;;;11.77;;
45392;SDS011;31129;44.810;10.334;2024-01-07T01:07:39;15.18;;;11.27;;
45392;SDS011;31129;44.810;10.334;2024-01-07T01:10:05;17.52;;;11.50;;
45392;SDS011;31129;44.810;10.334;2024-01-07T01:12:31;13.80;;;10.18;;
45392;SDS011;31129;44.810;10.334;2024-01-07T01:14:56;14.45;;;10.23;;
45392;SDS011;31129;44.810;10.334;2024-01-07T01:17:21;14.07;;;10.52;;
45392;SDS011;31129;44.810;10.334;2024-01-07T01:19:47;15.10;;;10.10;;
45392;SDS011;31129;44.810;10.334;2024-01-07T01:22:12;15.95;;;9.77;;
45392;SDS011;31129;44.810;10.334;2024-01-07T01:24:38;14.13;;;9.00;;
45392;SDS011;31129;44.810;10.334;2024-01-07T01:27:03;11.18;;;8.32;;
45392;SDS011;31129;44.810;10.334;2024-01-07T01:29:29;11.18;;;8.68;;
45392;SDS011;31129;44.810;10.334;2024-01-07T01:31:54;10.68;;;8.23;;
45392;SDS011;31129;44.810;10.334;2024-01-07T01:34:20;11.82;;;8.35;;
45392;SDS011;31129;44.810;10.334;2024-01-07T01:36:45;10.55;;;8.60;;
45392;SDS011;31129;44.810;10.334;2024-01-07T01:39:11;11.32;;;8.10;;
45392;SDS011;31129;44.810;10.334;2024-01-07T01:41:36;10.20;;;7.53;;
45392;SDS011;31129;44.810;10.334;2024-01-07T01:44:02;9.20;;;7.25;;
45392;SDS011;31129;44.810;10.334;2024-01-07T01:46:28;9.30;;;7.40;;
45392;SDS011;31129;44.810;10.334;2024-01-07T01:48:54;8.38;;;7.32;;
45392;SDS011;31129;44.810;10.334;2024-01-07T01:51:21;9.15;;;7.38;;
45392;SDS011;31129;44.810;10.334;2024-01-07T01:53:48;7.15;;;5.85;;
45392;SDS011;31129;44.810;10.334;2024-01-07T01:56:16;8.18;;;6.18;;
45392;SDS011;31129;44.810;10.334;2024-01-07T01:58:43;7.25;;;5.60;;
45392;SDS011;31129;44.810;10.334;2024-01-07T02:01:09;7.45;;;6.25;;
45392;SDS011;31129;44.810;10.334;2024-01-07T02:03:35;7.18;;;6.03;;
45392;SDS011;31129;44.810;10.334;2024-01-07T02:06:01;7.00;;;5.40;;
45392;SDS011;31129;44.810;10.334;2024-01-07T02:08:26;7.10;;;6.18;;
45392;SDS011;31129;44.810;10.334;2024-01-07T02:10:52;8.18;;;5.95;;
45392;SDS011;31129;44.810;10.334;2024-01-07T02:13:18;6.53;;;5.30;;
45392;SDS011;31129;44.810;10.334;2024-01-07T02:15:43;7.55;;;5.97;;
45392;SDS011;31129;44.810;10.334;2024-01-07T02:18:09;9.30;;;5.60;;
45392;SDS011;31129;44.810;10.334;2024-01-07T02:20:35;7.57;;;5.60;;
45392;SDS011;31129;44.810;10.334;2024-01-07T02:23:04;7.55;;;5.75;;
45392;SDS011;31129;44.810;10.334;2024-01-07T02:25:29;8.55;;;5.82;;
45392;SDS011;31129;44.810;10.334;2024-01-07T02:28:00;8.20;;;5.75;;
45392;SDS011;31129;44.810;10.334;2024-01-07T02:30:25;7.95;;;5.63;;
45392;SDS011;31129;44.810;10.334;2024-01-07T02:32:52;6.55;;;5.55;;
45392;SDS011;31129;44.810;10.334;2024-01-07T02:35:17;8.15;;;5.97;;
45392;SDS011;31129;44.810;10.334;2024-01-07T02:37:43;6.03;;;5.40;;
45392;SDS011;31129;44.810;10.334;2024-01-07T02:40:09;7.55;;;5.95;;
45392;SDS011;31129;44.810;10.334;2024-01-07T02:42:35;10.77;;;7.68;;
45392;SDS011;31129;44.810;10.334;2024-01-07T02:45:00;8.30;;;6.75;;
45392;SDS011;31129;44.810;10.334;2024-01-07T02:47:27;10.82;;;7.90;;
45392;SDS011;31129;44.810;10.334;2024-01-07T02:49:53;12.82;;;9.80;;
45392;SDS011;31129;44.810;10.334;2024-01-07T02:52:19;13.23;;;10.20;;
45392;SDS011;31129;44.810;10.334;2024-01-07T02:54:44;13.63;;;10.05;;
45392;SDS011;31129;44.810;10.334;2024-01-07T02:57:10;15.73;;;12.85;;
45392;SDS011;31129;44.810;10.334;2024-01-07T02:59:36;16.80;;;12.90;;
45392;SDS011;31129;44.810;10.334;2024-01-07T03:02:01;17.00;;;13.00;;
45392;SDS011;31129;44.810;10.334;2024-01-07T03:04:27;18.50;;;14.07;;
45392;SDS011;31129;44.810;10.334;2024-01-07T03:06:52;18.85;;;13.98;;
45392;SDS011;31129;44.810;10.334;2024-01-07T03:09:17;17.05;;;13.05;;
45392;SDS011;31129;44.810;10.334;2024-01-07T03:11:43;19.92;;;14.35;;
45392;SDS011;31129;44.810;10.334;2024-01-07T03:14:09;19.23;;;14.75;;
45392;SDS011;31129;44.810;10.334;2024-01-07T03:16:35;22.02;;;15.68;;
45392;SDS011;31129;44.810;10.334;2024-01-07T03:19:00;20.73;;;14.98;;
45392;SDS011;31129;44.810;10.334;2024-01-07T03:21:27;22.58;;;16.50;;
45392;SDS011;31129;44.810;10.334;2024-01-07T03:23:52;20.52;;;16.27;;
45392;SDS011;31129;44.810;10.334;2024-01-07T03:26:18;19.38;;;16.10;;
45392;SDS011;31129;44.810;10.334;2024-01-07T03:28:44;21.60;;;16.77;;
45392;SDS011;31129;44.810;10.334;2024-01-07T03:31:13;21.10;;;16.80;;
45392;SDS011;31129;44.810;10.334;2024-01-07T03:33:41;20.67;;;16.65;;
45392;SDS011;31129;44.810;10.334;2024-01-07T03:36:11;23.48;;;17.33;;
45392;SDS011;31129;44.810;10.334;2024-01-07T03:38:37;23.17;;;17.58;;
45392;SDS011;31129;44.810;10.334;2024-01-07T03:41:03;23.67;;;17.38;;
45392;SDS011;31129;44.810;10.334;2024-01-07T03:43:29;20.40;;;16.70;;
45392;SDS011;31129;44.810;10.334;2024-01-07T03:45:55;21.35;;;17.85;;
45392;SDS011;31129;44.810;10.334;2024-01-07T03:48:20;20.30;;;16.05;;
45392;SDS011;31129;44.810;10.334;2024-01-07T03:50:46;20.70;;;17.42;;
45392;SDS011;31129;44.810;10.334;2024-01-07T03:53:12;26.08;;;16.67;;
45392;SDS011;31129;44.810;10.334;2024-01-07T03:55:37;19.33;;;15.75;;
45392;SDS011;31129;44.810;10.334;2024-01-07T03:58:03;19.13;;;15.48;;
45392;SDS011;31129;44.810;10.334;2024-01-07T04:00:29;18.63;;;15.23;;
45392;SDS011;31129;44.810;10.334;2024-01-07T04:02:55;18.45;;;14.82;;
45392;SDS011;31129;44.810;10.334;2024-01-07T04:05:20;15.60;;;12.65;;
45392;SDS011;31129;44.810;10.334;2024-01-07T04:07:46;15.85;;;12.98;;
45392;SDS011;31129;44.810;10.334;2024-01-07T04:10:11;14.82;;;12.40;;
45392;SDS011;31129;44.810;10.334;2024-01-07T04:12:37;12.60;;;10.27;;
45392;SDS011;31129;44.810;10.334;2024-01-07T04:15:03;9.95;;;8.95;;
45392;SDS011;31129;44.810;10.334;2024-01-07T04:17:29;9.95;;;8.63;;
45392;SDS011;31129;44.810;10.334;2024-01-07T04:19:55;9.98;;;8.32;;
45392;SDS011;31129;44.810;10.334;2024-01-07T04:22:21;9.77;;;7.70;;
45392;SDS011;31129;44.810;10.334;2024-01-07T04:24:46;8.48;;;7.13;;
45392;SDS011;31129;44.810;10.334;2024-01-07T04:27:12;6.75;;;5.95;;
45392;SDS011;31129;44.810;10.334;2024-01-07T04:29:37;5.50;;;4.90;;
45392;SDS011;31129;44.810;10.334;2024-01-07T04:32:03;6.88;;;4.93;;
45392;SDS011;31129;44.810;10.334;2024-01-07T04:34:28;5.20;;;3.78;;
45392;SDS011;31129;44.810;10.334;2024-01-07T04:36:54;3.60;;;3.30;;
45392;SDS011;31129;44.810;10.334;2024-01-07T04:39:19;4.38;;;3.30;;
45392;SDS011;31129;44.810;10.334;2024-01-07T04:41:45;3.10;;;2.58;;
45392;SDS011;31129;44.810;10.334;2024-01-07T04:44:10;2.63;;;2.40;;
45392;SDS011;31129;44.810;10.334;2024-01-07T04:46:39;2.03;;;1.88;;
45392;SDS011;31129;44.810;10.334;2024-01-07T04:49:05;2.10;;;1.90;;
45392;SDS011;31129;44.810;10.334;2024-01-07T04:51:31;2.25;;;1.98;;
45392;SDS011;31129;44.810;10.334;2024-01-07T04:53:57;2.00;;;1.90;;
45392;SDS011;31129;44.810;10.334;2024-01-07T04:56:23;2.00;;;1.90;;
45392;SDS011;31129;44.810;10.334;2024-01-07T04:58:48;2.20;;;1.60;;
45392;SDS011;31129;44.810;10.334;2024-01-07T05:01:14;1.42;;;1.23;;
45392;SDS011;31129;44.810;10.334;2024-01-07T05:03:39;1.60;;;1.50;;
45392;SDS011;31129;44.810;10.334;2024-01-07T05:06:05;1.30;;;1.20;;
45392;SDS011;31129;44.810;10.334;2024-01-07T05:08:33;2.30;;;1.30;;
45392;SDS011;31129;44.810;10.334;2024-01-07T05:10:58;1.33;;;1.23;;
45392;SDS011;31129;44.810;10.334;2024-01-07T05:13:24;1.30;;;1.20;;
45392;SDS011;31129;44.810;10.334;2024-01-07T05:15:49;2.10;;;1.50;;
45392;SDS011;31129;44.810;10.334;2024-01-07T05:18:21;1.88;;;1.67;;
45392;SDS011;31129;44.810;10.334;2024-01-07T05:20:48;4.00;;;1.70;;
45392;SDS011;31129;44.810;10.334;2024-01-07T05:23:14;3.30;;;1.90;;
45392;SDS011;31129;44.810;10.334;2024-01-07T05:25:39;3.05;;;2.00;;
45392;SDS011;31129;44.810;10.334;2024-01-07T05:28:07;2.27;;;2.03;;
45392;SDS011;31129;44.810;10.334;2024-01-07T05:30:32;3.08;;;2.00;;
45392;SDS011;31129;44.810;10.334;2024-01-07T05:32:58;4.20;;;3.33;;
45392;SDS011;31129;44.810;10.334;2024-01-07T05:35:23;3.75;;;3.00;;
45392;SDS011;31129;44.810;10.334;2024-01-07T05:37:49;5.32;;;3.30;;
45392;SDS011;31129;44.810;10.334;2024-01-07T05:40:14;3.75;;;2.90;;
45392;SDS011;31129;44.810;10.334;2024-01-07T05:42:40;5.32;;;3.78;;
45392;SDS011;31129;44.810;10.334;2024-01-07T05:45:06;3.80;;;3.40;;
45392;SDS011;31129;44.810;10.334;2024-01-07T05:47:31;4.00;;;3.17;;
45392;SDS011;31129;44.810;10.334;2024-01-07T05:49:57;5.65;;;4.80;;
45392;SDS011;31129;44.810;10.334;2024-01-07T05:52:22;5.78;;;3.90;;
45392;SDS011;31129;44.810;10.334;2024-01-07T05:54:48;7.05;;;4.88;;
45392;SDS011;31129;44.810;10.334;2024-01-07T05:57:13;8.00;;;4.82;;
45392;SDS011;31129;44.810;10.334;2024-01-07T05:59:39;6.53;;;5.03;;
45392;SDS011;31129;44.810;10.334;2024-01-07T06:02:04;5.40;;;4.70;;
45392;SDS011;31129;44.810;10.334;2024-01-07T06:04:30;6.55;;;4.80;;
45392;SDS011;31129;44.810;10.334;2024-01-07T06:06:55;7.07;;;5.70;;
45392;SDS011;31129;44.810;10.334;2024-01-07T06:09:21;7.95;;;5.55;;
45392;SDS011;31129;44.810;10.334;2024-01-07T06:11:46;8.80;;;5.68;;
45392;SDS011;31129;44.810;10.334;2024-01-07T06:14:12;7.65;;;6.20;;
45392;SDS011;31129;44.810;10.334;2024-01-07T06:16:38;8.60;;;6.78;;
45392;SDS011;31129;44.810;10.334;2024-01-07T06:19:03;7.82;;;5.72;;
45392;SDS011;31129;44.810;10.334;2024-01-07T06:21:29;8.05;;;6.40;;
45392;SDS011;31129;44.810;10.334;2024-01-07T06:23:54;10.55;;;7.05;;
45392;SDS011;31129;44.810;10.334;2024-01-07T06:26:20;11.25;;;7.63;;
45392;SDS011;31129;44.810;10.334;2024-01-07T06:28:45;9.07;;;7.47;;
45392;SDS011;31129;44.810;10.334;2024-01-07T06:31:11;13.63;;;9.02;;
45392;SDS011;31129;44.810;10.334;2024-01-07T06:33:37;10.50;;;8.07;;
45392;SDS011;31129;44.810;10.334;2024-01-07T06:36:02;10.57;;;8.32;;
45392;SDS011;31129;44.810;10.334;2024-01-07T06:38:29;11.30;;;8.98;;
45392;SDS011;31129;44.810;10.334;2024-01-07T06:40:54;11.48;;;8.68;;
45392;SDS011;31129;44.810;10.334;2024-01-07T06:43:20;12.00;;;8.57;;
45392;SDS011;31129;44.810;10.334;2024-01-07T06:45:46;11.23;;;8.77;;
45392;SDS011;31129;44.810;10.334;2024-01-07T06:48:11;10.45;;;8.13;;
45392;SDS011;31129;44.810;10.334;2024-01-07T06:50:37;11.82;;;9.05;;
45392;SDS011;31129;44.810;10.334;2024-01-07T06:53:02;14.35;;;9.70;;
45392;SDS011;31129;44.810;10.334;2024-01-07T06:55:28;13.65;;;10.27;;
45392;SDS011;31129;44.810;10.334;2024-01-07T06:57:53;12.90;;;9.73;;
45392;SDS011;31129;44.810;10.334;2024-01-07T07:00:19;13.38;;;10.75;;
45392;SDS011;31129;44.810;10.334;2024-01-07T07:02:45;14.25;;;11.05;;
45392;SDS011;31129;44.810;10.334;2024-01-07T07:05:10;16.83;;;10.63;;
45392;SDS011;31129;44.810;10.334;2024-01-07T07:07:36;13.20;;;10.60;;
45392;SDS011;31129;44.810;10.334;2024-01-07T07:10:02;13.00;;;10.60;;
45392;SDS011;31129;44.810;10.334;2024-01-07T07:12:27;14.65;;;11.07;;
45392;SDS011;31129;44.810;10.334;2024-01-07T07:14:53;15.07;;;11.13;;
45392;SDS011;31129;44.810;10.334;2024-01-07T07:17:18;15.20;;;11.75;;
45392;SDS011;31129;44.810;10.334;2024-01-07T07:19:44;14.98;;;11.55;;
45392;SDS011;31129;44.810;10.334;2024-01-07T07:22:09;18.15;;;11.75;;
45392;SDS011;31129;44.810;10.334;2024-01-07T07:24:35;15.70;;;11.68;;
45392;SDS011;31129;44.810;10.334;2024-01-07T07:27:00;14.90;;;11.95;;
45392;SDS011;31129;44.810;10.334;2024-01-07T07:29:26;16.33;;;11.80;;
45392;SDS011;31129;44.810;10.334;2024-01-07T07:31:51;15.40;;;11.30;;
45392;SDS011;31129;44.810;10.334;2024-01-07T07:34:16;14.50;;;11.60;;
45392;SDS011;31129;44.810;10.334;2024-01-07T07:36:42;16.00;;;11.82;;
45392;SDS011;31129;44.810;10.334;2024-01-07T07:39:26;16.08;;;12.95;;
45392;SDS011;31129;44.810;10.334;2024-01-07T07:41:52;18.90;;;12.90;;
45392;SDS011;31129;44.810;10.334;2024-01-07T07:44:17;14.68;;;11.98;;
45392;SDS011;31129;44.810;10.334;2024-01-07T07:46:43;18.65;;;12.63;;
45392;SDS011;31129;44.810;10.334;2024-01-07T07:49:08;15.40;;;12.77;;
45392;SDS011;31129;44.810;10.334;2024-01-07T07:51:34;15.43;;;12.55;;
45392;SDS011;31129;44.810;10.334;2024-01-07T07:53:59;17.95;;;12.15;;
45392;SDS011;31129;44.810;10.334;2024-01-07T07:56:25;16.33;;;12.70;;
45392;SDS011;31129;44.810;10.334;2024-01-07T07:58:50;16.60;;;13.25;;
45392;SDS011;31129;44.810;10.334;2024-01-07T08:01:17;15.57;;;12.30;;
45392;SDS011;31129;44.810;10.334;2024-01-07T08:03:43;15.02;;;12.43;;
45392;SDS011;31129;44.810;10.334;2024-01-07T08:06:09;15.30;;;12.82;;
45392;SDS011;31129;44.810;10.334;2024-01-07T08:08:34;14.10;;;11.15;;
45392;SDS011;31129;44.810;10.334;2024-01-07T08:11:00;14.82;;;11.43;;
45392;SDS011;31129;44.810;10.334;2024-01-07T08:13:25;15.40;;;11.85;;
45392;SDS011;31129;44.810;10.334;2024-01-07T08:15:51;14.55;;;11.90;;
45392;SDS011;31129;44.810;10.334;2024-01-07T08:18:16;15.02;;;11.52;;
45392;SDS011;31129;44.810;10.334;2024-01-07T08:20:42;15.15;;;12.10;;
45392;SDS011;31129;44.810;10.334;2024-01-07T08:23:08;15.35;;;12.60;;
45392;SDS011;31129;44.810;10.334;2024-01-07T08:25:33;14.88;;;11.55;;
45392;SDS011;31129;44.810;10.334;2024-01-07T08:27:59;13.23;;;11.05;;
45392;SDS011;31129;44.810;10.334;2024-01-07T08:30:24;15.30;;;11.80;;
45392;SDS011;31129;44.810;10.334;2024-01-07T08:32:50;16.15;;;11.15;;
45392;SDS011;31129;44.810;10.334;2024-01-07T08:35:15;15.23;;;11.50;;
45392;SDS011;31129;44.810;10.334;2024-01-07T08:37:41;15.27;;;11.07;;
45392;SDS011;31129;44.810;10.334;2024-01-07T08:40:06;13.48;;;10.60;;
45392;SDS011;31129;44.810;10.334;2024-01-07T08:42:34;12.52;;;10.90;;
45392;SDS011;31129;44.810;10.334;2024-01-07T08:45:01;12.63;;;10.60;;
45392;SDS011;31129;44.810;10.334;2024-01-07T08:47:26;14.27;;;10.07;;
45392;SDS011;31129;44.810;10.334;2024-01-07T08:49:52;13.75;;;10.07;;
45392;SDS011;31129;44.810;10.334;2024-01-07T08:52:19;11.15;;;9.23;;
45392;SDS011;31129;44.810;10.334;2024-01-07T08:54:44;13.27;;;8.85;;
45392;SDS011;31129;44.810;10.334;2024-01-07T08:57:10;11.70;;;8.68;;
45392;SDS011;31129;44.810;10.334;2024-01-07T08:59:35;9.75;;;7.82;;
45392;SDS011;31129;44.810;10.334;2024-01-07T09:02:01;9.40;;;7.85;;
45392;SDS011;31129;44.810;10.334;2024-01-07T09:04:27;8.50;;;7.35;;
45392;SDS011;31129;44.810;10.334;2024-01-07T09:06:53;9.13;;;7.25;;
45392;SDS011;31129;44.810;10.334;2024-01-07T09:09:18;8.07;;;6.72;;
45392;SDS011;31129;44.810;10.334;2024-01-07T09:11:44;9.55;;;7.30;;
45392;SDS011;31129;44.810;10.334;2024-01-07T09:14:10;7.80;;;6.40;;
45392;SDS011;31129;44.810;10.334;2024-01-07T09:16:36;7.90;;;6.18;;
45392;SDS011;31129;44.810;10.334;2024-01-07T09:19:01;8.90;;;7.05;;
45392;SDS011;31129;44.810;10.334;2024-01-07T09:21:27;7.78;;;5.72;;
45392;SDS011;31129;44.810;10.334;2024-01-07T09:23:53;7.15;;;5.82;;
45392;SDS011;31129;44.810;10.334;2024-01-07T09:26:18;6.18;;;4.97;;
45392;SDS011;31129;44.810;10.334;2024-01-07T09:28:44;8.60;;;6.18;;
45392;SDS011;31129;44.810;10.334;2024-01-07T09:31:09;7.78;;;5.70;;
45392;SDS011;31129;44.810;10.334;2024-01-07T09:33:35;7.03;;;5.50;;
45392;SDS011;31129;44.810;10.334;2024-01-07T09:36:00;7.18;;;6.03;;
45392;SDS011;31129;44.810;10.334;2024-01-07T09:38:26;8.05;;;5.95;;
45392;SDS011;31129;44.810;10.334;2024-01-07T09:40:51;6.68;;;5.93;;
45392;SDS011;31129;44.810;10.334;2024-01-07T09:43:18;7.30;;;5.90;;
45392;SDS011;31129;44.810;10.334;2024-01-07T09:45:46;6.60;;;5.78;;
45392;SDS011;31129;44.810;10.334;2024-01-07T09:48:15;7.30;;;6.20;;
45392;SDS011;31129;44.810;10.334;2024-01-07T09:50:41;8.20;;;6.85;;
45392;SDS011;31129;44.810;10.334;2024-01-07T09:53:07;8.90;;;6.70;;
45392;SDS011;31129;44.810;10.334;2024-01-07T09:56:39;13.10;;;7.15;;
45392;SDS011;31129;44.810;10.334;2024-01-07T09:58:48;9.40;;;7.10;;
45392;SDS011;31129;44.810;10.334;2024-01-07T10:01:17;6.63;;;5.80;;
45392;SDS011;31129;44.810;10.334;2024-01-07T10:03:43;11.63;;;6.30;;
45392;SDS011;31129;44.810;10.334;2024-01-07T10:06:12;7.90;;;5.50;;
45392;SDS011;31129;44.810;10.334;2024-01-07T10:08:38;8.50;;;6.75;;
45392;SDS011;31129;44.810;10.334;2024-01-07T10:11:04;6.80;;;5.53;;
45392;SDS011;31129;44.810;10.334;2024-01-07T10:13:30;7.13;;;5.72;;
45392;SDS011;31129;44.810;10.334;2024-01-07T10:15:55;7.07;;;5.47;;
45392;SDS011;31129;44.810;10.334;2024-01-07T10:18:21;9.80;;;6.28;;
45392;SDS011;31129;44.810;10.334;2024-01-07T10:20:47;8.57;;;5.68;;
45392;SDS011;31129;44.810;10.334;2024-01-07T10:23:18;7.57;;;5.60;;
45392;SDS011;31129;44.810;10.334;2024-01-07T10:25:44;10.05;;;5.68;;
45392;SDS011;31129;44.810;10.334;2024-01-07T10:28:10;7.10;;;5.85;;
45392;SDS011;31129;44.810;10.334;2024-01-07T10:30:38;5.45;;;4.82;;
45392;SDS011;31129;44.810;10.334;2024-01-07T10:33:05;7.32;;;5.60;;
45392;SDS011;31129;44.810;10.334;2024-01-07T10:35:33;7.60;;;5.30;;
45392;SDS011;31129;44.810;10.334;2024-01-07T10:38:00;9.18;;;5.47;;
45392;SDS011;31129;44.810;10.334;2024-01-07T10:40:26;7.82;;;5.60;;
45392;SDS011;31129;44.810;10.334;2024-01-07T10:45:20;7.78;;;4.75;;
45392;SDS011;31129;44.810;10.334;2024-01-07T10:47:48;6.53;;;5.32;;
45392;SDS011;31129;44.810;10.334;2024-01-07T10:50:17;8.00;;;5.20;;
45392;SDS011;31129;44.810;10.334;2024-01-07T10:52:44;5.70;;;4.90;;
45392;SDS011;31129;44.810;10.334;2024-01-07T10:55:14;7.28;;;5.15;;
45392;SDS011;31129;44.810;10.334;2024-01-07T10:57:48;5.80;;;4.88;;
45392;SDS011;31129;44.810;10.334;2024-01-07T11:00:15;6.40;;;4.45;;
45392;SDS011;31129;44.810;10.334;2024-01-07T11:08:26;5.47;;;4.20;;
45392;SDS011;31129;44.810;10.334;2024-01-07T11:10:58;7.53;;;5.20;;
45392;SDS011;31129;44.810;10.334;2024-01-07T11:13:36;7.28;;;4.53;;
45392;SDS011;31129;44.810;10.334;2024-01-07T11:16:06;4.85;;;3.60;;
45392;SDS011;31129;44.810;10.334;2024-01-07T11:18:45;6.55;;;3.60;;
45392;SDS011;31129;44.810;10.334;2024-01-07T11:21:20;5.63;;;3.70;;
45392;SDS011;31129;44.810;10.334;2024-01-07T11:23:51;4.15;;;3.05;;
45392;SDS011;31129;44.810;10.334;2024-01-07T11:26:18;5.57;;;4.30;;
45392;SDS011;31129;44.810;10.334;2024-01-07T11:28:52;6.90;;;4.10;;
45392;SDS011;31129;44.810;10.334;2024-01-07T11:31:20;5.65;;;3.60;;
45392;SDS011;31129;44.810;10.334;2024-01-07T11:33:50;4.57;;;3.83;;
45392;SDS011;31129;44.810;10.334;2024-01-07T11:36:16;5.97;;;4.07;;
45392;SDS011;31129;44.810;10.334;2024-01-07T11:38:49;5.60;;;4.03;;
45392;SDS011;31129;44.810;10.334;2024-01-07T11:41:15;4.57;;;3.60;;
45392;SDS011;31129;44.810;10.334;2024-01-07T11:43:55;5.37;;;3.80;;
45392;SDS011;31129;44.810;10.334;2024-01-07T11:46:28;4.63;;;3.90;;
45392;SDS011;31129;44.810;10.334;2024-01-07T11:48:58;5.28;;;3.30;;
45392;SDS011;31129;44.810;10.334;2024-01-07T11:51:25;4.25;;;3.65;;
45392;SDS011;31129;44.810;10.334;2024-01-07T11:53:56;4.13;;;3.22;;
45392;SDS011;31129;44.810;10.334;2024-01-07T11:56:22;4.75;;;3.42;;
45392;SDS011;31129;44.810;10.334;2024-01-07T11:58:49;6.15;;;3.70;;
45392;SDS011;31129;44.810;10.334;2024-01-07T12:01:15;4.43;;;4.00;;
45392;SDS011;31129;44.810;10.334;2024-01-07T12:03:43;6.90;;;3.85;;
45392;SDS011;31129;44.810;10.334;2024-01-07T12:06:10;4.40;;;3.95;;
45392;SDS011;31129;44.810;10.334;2024-01-07T12:08:40;5.18;;;3.67;;
45392;SDS011;31129;44.810;10.334;2024-01-07T12:11:06;5.15;;;3.92;;
45392;SDS011;31129;44.810;10.334;2024-01-07T12:13:32;6.15;;;3.78;;
45392;SDS011;31129;44.810;10.334;2024-01-07T12:15:58;4.03;;;3.45;;
45392;SDS011;31129;44.810;10.334;2024-01-07T12:18:23;4.40;;;3.60;;
45392;SDS011;31129;44.810;10.334;2024-01-07T12:20:54;3.17;;;2.70;;
45392;SDS011;31129;44.810;10.334;2024-01-07T12:23:21;3.70;;;3.28;;
45392;SDS011;31129;44.810;10.334;2024-01-07T12:25:47;6.38;;;4.13;;
45392;SDS011;31129;44.810;10.334;2024-01-07T12:28:12;5.35;;;4.32;;
45392;SDS011;31129;44.810;10.334;2024-01-07T12:30:38;5.07;;;4.55;;
45392;SDS011;31129;44.810;10.334;2024-01-07T12:33:04;6.82;;;5.05;;
45392;SDS011;31129;44.810;10.334;2024-01-07T12:35:30;7.88;;;4.93;;
45392;SDS011;31129;44.810;10.334;2024-01-07T12:37:56;6.03;;;5.35;;
45392;SDS011;31129;44.810;10.334;2024-01-07T12:40:24;6.20;;;4.80;;
45392;SDS011;31129;44.810;10.334;2024-01-07T12:42:52;6.70;;;5.80;;
45392;SDS011;31129;44.810;10.334;2024-01-07T12:45:17;6.00;;;5.20;;
45392;SDS011;31129;44.810;10.334;2024-01-07T12:47:43;6.82;;;5.30;;
45392;SDS011;31129;44.810;10.334;2024-01-07T12:50:09;7.72;;;5.47;;
45392;SDS011;31129;44.810;10.334;2024-01-07T12:52:38;8.68;;;5.38;;
45392;SDS011;31129;44.810;10.334;2024-01-07T12:55:05;7.78;;;5.22;;
45392;SDS011;31129;44.810;10.334;2024-01-07T12:57:31;7.47;;;4.80;;
45392;SDS011;31129;44.810;10.334;2024-01-07T12:59:57;8.95;;;5.60;;
45392;SDS011;31129;44.810;10.334;2024-01-07T13:02:23;7.95;;;5.65;;
45392;SDS011;31129;44.810;10.334;2024-01-07T13:04:49;6.30;;;5.07;;
45392;SDS011;31129;44.810;10.334;2024-01-07T13:07:15;8.48;;;5.50;;
45392;SDS011;31129;44.810;10.334;2024-01-07T13:09:41;7.20;;;5.20;;
45392;SDS011;31129;44.810;10.334;2024-01-07T13:12:07;9.88;;;4.72;;
45392;SDS011;31129;44.810;10.334;2024-01-07T13:14:32;8.63;;;5.50;;
45392;SDS011;31129;44.810;10.334;2024-01-07T13:16:58;5.70;;;4.68;;
45392;SDS011;31129;44.810;10.334;2024-01-07T13:19:24;6.90;;;4.90;;
45392;SDS011;31129;44.810;10.334;2024-01-07T13:21:52;6.17;;;5.27;;
45392;SDS011;31129;44.810;10.334;2024-01-07T13:24:20;5.88;;;5.10;;
45392;SDS011;31129;44.810;10.334;2024-01-07T13:26:46;5.53;;;4.53;;
45392;SDS011;31129;44.810;10.334;2024-01-07T13:29:12;4.63;;;4.13;;
45392;SDS011;31129;44.810;10.334;2024-01-07T13:31:37;6.60;;;4.65;;
45392;SDS011;31129;44.810;10.334;2024-01-07T13:34:03;8.77;;;4.72;;
45392;SDS011;31129;44.810;10.334;2024-01-07T13:36:28;7.03;;;4.80;;
45392;SDS011;31129;44.810;10.334;2024-01-07T13:38:54;5.63;;;4.47;;
45392;SDS011;31129;44.810;10.334;2024-01-07T13:41:19;8.00;;;5.90;;
45392;SDS011;31129;44.810;10.334;2024-01-07T13:43:45;7.55;;;5.18;;
45392;SDS011;31129;44.810;10.334;2024-01-07T13:46:11;5.20;;;4.50;;
45392;SDS011;31129;44.810;10.334;2024-01-07T13:48:37;6.05;;;4.82;;
45392;SDS011;31129;44.810;10.334;2024-01-07T13:51:04;8.25;;;5.05;;
45392;SDS011;31129;44.810;10.334;2024-01-07T13:53:31;5.25;;;4.63;;
45392;SDS011;31129;44.810;10.334;2024-01-07T13:55:56;5.40;;;4.32;;
45392;SDS011;31129;44.810;10.334;2024-01-07T13:58:22;6.30;;;4.80;;
45392;SDS011;31129;44.810;10.334;2024-01-07T14:00:48;5.45;;;4.78;;
45392;SDS011;31129;44.810;10.334;2024-01-07T14:03:14;5.03;;;4.50;;
45392;SDS011;31129;44.810;10.334;2024-01-07T14:05:39;5.35;;;4.28;;
45392;SDS011;31129;44.810;10.334;2024-01-07T14:08:06;6.90;;;4.55;;
45392;SDS011;31129;44.810;10.334;2024-01-07T14:10:31;5.57;;;4.60;;
45392;SDS011;31129;44.810;10.334;2024-01-07T14:12:57;9.00;;;5.10;;
45392;SDS011;31129;44.810;10.334;2024-01-07T14:15:23;6.05;;;4.45;;
45392;SDS011;31129;44.810;10.334;2024-01-07T14:17:48;6.05;;;4.68;;
45392;SDS011;31129;44.810;10.334;2024-01-07T14:20:14;6.35;;;4.40;;
45392;SDS011;31129;44.810;10.334;2024-01-07T14:22:39;5.90;;;4.40;;
45392;SDS011;31129;44.810;10.334;2024-01-07T14:25:05;7.50;;;4.90;;
45392;SDS011;31129;44.810;10.334;2024-01-07T14:27:31;8.57;;;4.97;;
45392;SDS011;31129;44.810;10.334;2024-01-07T14:29:56;5.03;;;4.28;;